Aérodrome :
LOGIN :

S'inscrire | Disclaimer

   EN    FR    IT 

 










Légende :    VFR   VFR Marginal   IFR   IFR Intensif   IFR Très Intensif
Visi : 
Plafond : 
>= 8 km
>= 3000ft
5 à 8 km
1000 à 3000 ft
1500m à 5 km
500 à 1000 ft
800 à 1500m
200 à 500 ft
< 800m
< 200 ft
Symboles :   Orages  Brouillard  Fortes neiges  Fortes précipitations  Vent > 20 kt
SIGMETs :   Divers  Orages  Givrage  Turbulence  Onde Orograph.  Cendres Volcan.







- Altitude de l'aérodrome : 11 ft
- Code IATA : SXL


EISG - Sligo

DERNIER METAR :
  • 191030Z VRB02KT 9999 OVC018 11/08 Q1018

METARs EXPIRÉS :
  • 191000Z VRB02KT 4700 BR BKN020 BKN060 11/08 Q1018
  • 190930Z 23002KT 6000 BKN021 OVC049 10/08 Q1018
  • 190900Z 00000KT 9999 OVC019 10/09 Q1017
  • 190830Z VRB03KT 7000 SCT014 OVC047 10/08 Q1017

TAF TAF EISG
Valide du 19 à 09h jusqu'au 19 à 18h UTC


190800Z 1909/1918 21007KT 9999 BKN030
TEMPO 1909/1912 5000 BR
PROB30
TEMPO 1909/1911 BKN012
BECMG 1911/1914 BKN012
BECMG 1913/1915 25010KT
TEMPO 1914/1917 5000 -RADZ BKN008
BECMG 1916/1918 30015KT SCT020 BKN040
Pas de NOTAMs connus pour ce terrain.



MET'MAP, la Météo Aéronautique d'un coup d'oeil ! - Copyright ORBIFLY Décembre 2007 - Disclaimer

ORBIFLY MET'MAP TEAM :

Programmation & Développement : Alexandra Zaïnal
Conception & Développement : Baudouin d'Aumeries
Co-Programmation & Développement : Marc-Olivier Méhu
Soutien technique & logistique : Manuel Goepfert

Contact : metmap@orbifly.com




SOURCES & CREDITS :

   NOAA